Time;durP1;ratioP1;P1;durP2;ratioP2;P2;SDS_P1;SDS_P2;PMS_P1;PMS_P2;Temp;Humidity;BMP_temperature;BMP_pressure;BME280_temperature;BME280_humidity;BME280_pressure;Samples;Min_cycle;Max_cycle;Signal;HPM_P1;HPM_P2
2022/04/20 00:00:36;;;;;;;1.92;1.70;;;;;;;-140.72;100.00;52431.44;5008448;28;20480;-72
2022/04/20 00:03:03;;;;;;;1.98;1.23;;;;;;;-140.72;100.00;52396.94;5008003;28;20058;-72
2022/04/20 00:05:33;;;;;;;1.73;1.30;;;;;;;-140.72;100.00;52419.28;5008070;28;20026;-71
2022/04/20 00:07:59;;;;;;;2.28;1.65;;;;;;;-140.72;100.00;52449.72;5008500;28;20127;-69
2022/04/20 00:10:24;;;;;;;1.85;0.93;;;;;;;-140.72;100.00;52453.75;5008341;28;20041;-70
2022/04/20 00:12:49;;;;;;;1.58;0.90;;;;;;;-140.72;100.00;52474.06;5008340;28;20484;-70
2022/04/20 00:15:15;;;;;;;1.58;1.10;;;;;;;-140.72;100.00;52465.94;5008323;28;20037;-70
2022/04/20 00:17:40;;;;;;;5.45;2.60;;;;;;;-140.72;100.00;52413.19;4990236;28;20126;-70
2022/04/20 00:20:06;;;;;;;1.58;1.17;;;;;;;-140.72;100.00;52427.38;5008184;28;20107;-69
2022/04/20 00:22:31;;;;;;;5.07;2.40;;;;;;;-140.72;100.00;52429.41;5007378;28;20026;-70
2022/04/20 00:24:57;;;;;;;2.28;1.17;;;;;;;-140.72;100.00;52449.72;5008202;28;20030;-71
2022/04/20 00:27:22;;;;;;;1.27;1.17;;;;;;;-140.72;100.00;52421.28;5008152;28;20037;-70
2022/04/20 00:29:47;;;;;;;2.67;1.17;;;;;;;-140.72;100.00;52449.72;5008347;28;20068;-70
2022/04/20 00:32:13;;;;;;;3.67;1.48;;;;;;;-140.72;100.00;52425.34;5007948;28;20392;-70
2022/04/20 00:34:38;;;;;;;3.70;1.67;;;;;;;-140.72;100.00;52455.78;5008092;28;20026;-71
2022/04/20 00:37:03;;;;;;;2.63;0.95;;;;;;;-140.72;100.00;52407.09;5007908;28;20079;-71
2022/04/20 00:39:29;;;;;;;2.22;1.98;;;;;;;-140.72;100.00;52474.06;5008246;28;20041;-72
2022/04/20 00:41:54;;;;;;;2.25;1.20;;;;;;;-140.72;100.00;52455.78;5007578;28;20482;-71
2022/04/20 00:44:20;;;;;;;2.65;0.88;;;;;;;-140.72;100.00;52457.81;5008275;28;20030;-70
2022/04/20 00:46:49;;;;;;;4.25;1.50;;;;;;;-140.72;100.00;52455.78;5008069;28;20034;-71
2022/04/20 00:49:15;;;;;;;2.05;1.05;;;;;;;-140.72;100.00;52459.84;5007804;28;20143;-71
2022/04/20 00:51:57;;;;;;;1.10;0.88;;;;;;;-140.72;100.00;52435.50;5008028;28;20109;-70
2022/04/20 00:54:23;;;;;;;3.47;1.27;;;;;;;-140.72;100.00;52447.69;5007889;28;20026;-71
2022/04/20 00:56:48;;;;;;;1.38;0.90;;;;;;;-140.72;100.00;52449.72;5007549;28;20026;-70
2022/04/20 00:59:17;;;;;;;2.47;1.52;;;;;;;-140.72;100.00;52476.09;5005617;28;124847;-73
2022/04/20 01:01:42;;;;;;;1.90;1.23;;;;;;;-140.72;100.00;52453.75;5071328;28;20479;-73
2022/04/20 01:04:08;;;;;;;1.88;1.67;;;;;;;-140.72;100.00;52459.84;5008686;28;20034;-71
2022/04/20 01:06:33;;;;;;;1.85;1.63;;;;;;;-140.72;100.00;52472.03;5008181;28;20079;-72
2022/04/20 01:09:00;;;;;;;1.27;1.10;;;;;;;-140.72;100.00;52453.75;5007891;28;20087;-72
2022/04/20 01:11:27;;;;;;;1.52;1.23;;;;;;;-140.72;100.00;52439.56;5008188;28;20476;-71
2022/04/20 01:13:52;;;;;;;1.17;1.08;;;;;;;-140.72;100.00;52429.41;5008062;28;20026;-70
2022/04/20 01:16:18;;;;;;;2.67;1.88;;;;;;;-140.72;100.00;52451.72;4991399;28;20111;-71
2022/04/20 01:18:44;;;;;;;2.20;1.30;;;;;;;-140.72;100.00;52431.44;5001477;28;20042;-71
2022/04/20 01:21:10;;;;;;;1.88;1.33;;;;;;;-140.72;100.00;52463.91;4988641;28;20035;-72
2022/04/20 01:23:36;;;;;;;1.83;1.00;;;;;;;-140.72;100.00;52461.88;4988943;28;20117;-73
2022/04/20 01:26:06;;;;;;;1.38;1.27;;;;;;;-140.72;100.00;52476.09;4988778;28;20054;-71
2022/04/20 01:28:32;;;;;;;1.50;1.40;;;;;;;-140.72;100.00;52463.91;4988745;28;20045;-73
2022/04/20 01:30:57;;;;;;;1.10;1.00;;;;;;;-140.72;100.00;52451.72;4988713;28;20383;-70
2022/04/20 01:33:23;;;;;;;3.70;1.30;;;;;;;-140.72;100.00;52476.09;4988659;28;20042;-72
2022/04/20 01:35:48;;;;;;;4.22;1.23;;;;;;;-140.72;100.00;52478.13;4990970;28;20491;-71
2022/04/20 01:38:13;;;;;;;3.95;1.95;;;;;;;-140.72;100.00;52437.53;4991937;28;20062;-72
2022/04/20 01:40:38;;;;;;;1.50;1.38;;;;;;;-140.72;100.00;52467.97;4991806;28;20492;-72
2022/04/20 01:43:04;;;;;;;2.00;1.17;;;;;;;-140.72;100.00;52461.88;4991614;28;20027;-70
2022/04/20 01:45:29;;;;;;;1.27;1.08;;;;;;;-140.72;100.00;52492.31;4991785;28;20121;-70
2022/04/20 01:47:54;;;;;;;1.85;1.38;;;;;;;-140.72;100.00;52467.97;4991642;28;20118;-70
2022/04/20 01:50:20;;;;;;;0.75;0.73;;;;;;;-140.72;100.00;52484.19;4991837;28;20469;-71
2022/04/20 01:52:49;;;;;;;3.15;1.45;;;;;;;-140.72;100.00;52465.94;4991182;28;20107;-72
2022/04/20 01:55:18;;;;;;;1.63;1.48;;;;;;;-140.72;100.00;52482.16;4991677;28;20062;-70
2022/04/20 01:57:44;;;;;;;2.88;1.23;;;;;;;-140.72;100.00;52443.63;4991728;28;20107;-70
2022/04/20 02:00:10;;;;;;;1.40;1.10;;;;;;;-140.72;100.00;52465.94;4991694;28;20440;-70
2022/04/20 02:02:38;;;;;;;0.82;0.60;;;;;;;-140.72;100.00;52455.78;4991327;28;20071;-70
2022/04/20 02:05:05;;;;;;;1.65;1.10;;;;;;;-140.72;100.00;52496.38;4991727;28;20027;-70
2022/04/20 02:07:31;;;;;;;0.77;0.77;;;;;;;-140.72;100.00;52482.16;5010622;28;20026;-71
2022/04/20 02:09:56;;;;;;;2.03;1.10;;;;;;;-140.72;100.00;52492.31;5011309;28;20034;-69
2022/04/20 02:12:21;;;;;;;2.20;1.45;;;;;;;-140.72;100.00;52470.00;5011521;28;20034;-70
2022/04/20 02:14:47;;;;;;;1.17;1.08;;;;;;;-140.72;100.00;52494.34;5011220;28;20057;-69
2022/04/20 02:17:12;;;;;;;1.85;1.15;;;;;;;-140.72;100.00;52472.03;5010461;28;20448;-71
2022/04/20 02:19:38;;;;;;;1.35;0.73;;;;;;;-140.72;100.00;52496.38;5010687;28;20113;-72
2022/04/20 02:22:04;;;;;;;1.27;1.17;;;;;;;-140.72;100.00;52474.06;5010817;28;20034;-70
2022/04/20 02:24:30;;;;;;;1.85;1.08;;;;;;;-140.72;100.00;52496.38;5010762;28;20105;-73
2022/04/20 02:26:55;;;;;;;1.00;0.90;;;;;;;-140.72;100.00;52482.16;5010911;28;20440;-69
2022/04/20 02:29:21;;;;;;;1.52;0.98;;;;;;;-140.72;100.00;52506.53;5010884;28;20029;-70
2022/04/20 02:31:46;;;;;;;7.10;1.30;;;;;;;-140.72;100.00;52423.31;5010507;28;20030;-71
2022/04/20 02:34:12;;;;;;;2.58;1.50;;;;;;;-140.72;100.00;52500.44;5010436;28;20018;-70
2022/04/20 02:36:37;;;;;;;1.92;1.70;;;;;;;-140.72;100.00;52482.16;5009991;28;20094;-72
2022/04/20 02:39:04;;;;;;;1.60;1.10;;;;;;;-140.72;100.00;52470.00;4998811;28;20194;-71
2022/04/20 02:41:32;;;;;;;1.27;0.80;;;;;;;-140.72;100.00;52516.66;5010307;28;20038;-69
2022/04/20 02:43:57;;;;;;;0.70;0.50;;;;;;;-140.72;100.00;52498.41;4993705;28;20038;-71
2022/04/20 02:46:23;;;;;;;0.95;0.80;;;;;;;-140.72;100.00;52482.16;5004502;28;20037;-70
2022/04/20 02:48:49;;;;;;;1.95;0.88;;;;;;;-140.72;100.00;52480.16;5009923;28;20034;-70
2022/04/20 02:51:15;;;;;;;1.10;1.00;;;;;;;-140.72;100.00;52510.59;5010222;28;20037;-71
2022/04/20 02:53:40;;;;;;;1.55;1.42;;;;;;;-140.72;100.00;52488.25;5006196;28;20058;-70
2022/04/20 02:56:06;;;;;;;1.05;0.82;;;;;;;-140.72;100.00;52480.16;4990477;28;20031;-70
2022/04/20 02:58:31;;;;;;;5.82;1.70;;;;;;;-140.72;100.00;52459.84;4991051;28;20468;-71
2022/04/20 03:00:57;;;;;;;0.65;0.63;;;;;;;-140.72;100.00;52508.56;5052343;28;20456;-70
2022/04/20 03:03:22;;;;;;;1.77;1.30;;;;;;;-140.72;100.00;52494.34;5072743;28;20039;-70
2022/04/20 03:05:48;;;;;;;0.75;0.65;;;;;;;-140.72;100.00;52532.91;5072612;28;20041;-71
2022/04/20 03:08:14;;;;;;;1.20;0.82;;;;;;;-140.72;100.00;52512.59;5079455;28;20400;-71
2022/04/20 03:10:39;;;;;;;1.50;0.77;;;;;;;-140.72;100.00;52528.84;5092909;28;20023;-72
2022/04/20 03:13:05;;;;;;;1.63;0.90;;;;;;;-140.72;100.00;52514.63;5092988;28;20359;-71
2022/04/20 03:15:30;;;;;;;0.52;0.38;;;;;;;-140.72;100.00;52524.78;5092839;28;20123;-72
2022/04/20 03:17:57;;;;;;;1.13;0.98;;;;;;;-140.72;100.00;52496.38;5092700;28;20408;-72
2022/04/20 03:20:23;;;;;;;1.45;1.08;;;;;;;-140.72;100.00;52480.16;5092371;28;20031;-71
2022/04/20 03:22:48;;;;;;;1.23;1.13;;;;;;;-140.72;100.00;52484.19;5092602;28;20032;-71
2022/04/20 03:25:14;;;;;;;0.73;0.57;;;;;;;-140.72;100.00;52478.13;5084144;28;20499;-72
2022/04/20 03:27:39;;;;;;;1.73;1.30;;;;;;;-140.72;100.00;52504.50;5077712;28;20075;-73
2022/04/20 03:30:05;;;;;;;1.23;1.08;;;;;;;-140.72;100.00;52492.31;5077734;28;20587;-72
2022/04/20 03:32:31;;;;;;;1.75;0.77;;;;;;;-140.72;100.00;52502.47;5083745;28;20076;-71
2022/04/20 03:34:57;;;;;;;2.45;0.95;;;;;;;-140.72;100.00;52496.38;5079405;28;20111;-70
2022/04/20 03:37:22;;;;;;;3.33;0.73;;;;;;;-140.72;100.00;52522.75;5080943;28;20027;-71
2022/04/20 03:39:48;;;;;;;1.05;0.70;;;;;;;-140.72;100.00;52512.59;5084627;28;20024;-73
2022/04/20 03:42:14;;;;;;;0.93;0.75;;;;;;;-140.72;100.00;52536.97;5076499;28;20028;-71
2022/04/20 03:44:40;;;;;;;1.05;0.80;;;;;;;-140.72;100.00;52516.66;5084127;28;20032;-71
2022/04/20 03:47:06;;;;;;;0.50;0.50;;;;;;;-140.72;100.00;52512.59;5077793;28;20032;-70
2022/04/20 03:49:31;;;;;;;0.68;0.65;;;;;;;-140.72;100.00;52520.72;5073464;28;20055;-72
2022/04/20 03:51:57;;;;;;;0.55;0.50;;;;;;;-140.72;100.00;52490.28;5078731;28;20369;-73
2022/04/20 03:54:23;;;;;;;1.13;0.70;;;;;;;-140.72;100.00;52506.53;5079245;28;20021;-72
2022/04/20 03:57:04;;;;;;;2.08;1.27;;;;;;;-140.72;100.00;52522.75;5084281;28;20027;-74
2022/04/20 03:59:35;;;;;;;1.50;0.90;;;;;;;-140.72;100.00;52541.03;5076447;28;20072;-70
2022/04/20 04:02:01;;;;;;;1.10;1.00;;;;;;;-140.72;100.00;52526.81;5070638;28;20153;-70
2022/04/20 04:04:27;;;;;;;1.02;0.80;;;;;;;-140.72;100.00;52539.00;5090707;28;20088;-70
2022/04/20 04:06:53;;;;;;;1.20;0.93;;;;;;;-140.72;100.00;52502.47;5091539;28;20047;-70
2022/04/20 04:09:19;;;;;;;0.57;0.30;;;;;;;-140.72;100.00;52508.56;5091882;28;20437;-70
2022/04/20 04:11:44;;;;;;;2.15;1.05;;;;;;;-140.72;100.00;52524.78;5091902;28;20047;-70
2022/04/20 04:14:09;;;;;;;0.68;0.57;;;;;;;-140.72;100.00;52543.03;5091877;28;20110;-72
2022/04/20 04:16:36;;;;;;;1.23;1.05;;;;;;;-140.72;100.00;52522.75;5091705;28;20034;-70
2022/04/20 04:19:08;;;;;;;1.77;1.15;;;;;;;-140.72;100.00;52559.28;5092251;28;20107;-70
2022/04/20 04:21:38;;;;;;;1.50;0.70;;;;;;;-140.72;100.00;52500.44;5092004;28;20035;-69
2022/04/20 04:24:08;;;;;;;1.70;0.53;;;;;;;-140.72;100.00;52504.50;5091988;28;20097;-69
2022/04/20 04:26:36;;;;;;;0.80;0.80;;;;;;;-140.72;100.00;52504.50;5091913;28;20270;-70
2022/04/20 04:29:02;;;;;;;1.95;1.05;;;;;;;-140.72;100.00;52498.41;5091593;28;20466;-70
2022/04/20 04:31:27;;;;;;;1.63;0.82;;;;;;;-140.72;100.00;52508.56;5110681;28;20019;-72
2022/04/20 04:33:53;;;;;;;1.55;1.05;;;;;;;-140.72;100.00;52520.72;5111934;28;20541;-72
2022/04/20 04:36:18;;;;;;;2.10;1.40;;;;;;;-140.72;100.00;52549.13;5112128;28;20028;-70
2022/04/20 04:38:44;;;;;;;0.75;0.68;;;;;;;-140.72;100.00;52492.31;5111601;28;20068;-70
2022/04/20 04:41:09;;;;;;;0.98;0.90;;;;;;;-140.72;100.00;52512.59;5093441;28;20069;-72
2022/04/20 04:43:35;;;;;;;0.80;0.50;;;;;;;-140.72;100.00;52571.47;5090522;28;20101;-70
2022/04/20 04:48:48;;;;;;;0.50;0.50;;;;;;;-140.72;100.00;52492.31;5071463;28;20081;-71
2022/04/20 04:51:15;;;;;;;1.48;0.82;;;;;;;-140.72;100.00;52524.78;5071417;28;20466;-70
2022/04/20 04:53:40;;;;;;;1.45;1.10;;;;;;;-140.72;100.00;52496.38;5070985;28;20033;-72
2022/04/20 04:56:07;;;;;;;1.50;1.40;;;;;;;-140.72;100.00;52520.72;5070953;28;20039;-70
2022/04/20 04:58:33;;;;;;;0.88;0.70;;;;;;;-140.72;100.00;52516.66;5071135;28;20025;-71
2022/04/20 05:00:58;;;;;;;0.70;0.70;;;;;;;-140.72;100.00;52510.59;5032149;28;20150;-69
2022/04/20 05:03:24;;;;;;;1.33;0.98;;;;;;;-140.72;100.00;52508.56;5070908;28;20028;-70
2022/04/20 05:05:50;;;;;;;2.65;1.00;;;;;;;-140.72;100.00;52522.75;5070720;28;20025;-69
2022/04/20 05:08:16;;;;;;;0.68;0.60;;;;;;;-140.72;100.00;52496.38;5080025;28;20028;-71
2022/04/20 05:10:41;;;;;;;1.55;1.08;;;;;;;-140.72;100.00;52514.63;5090551;28;20035;-71
2022/04/20 05:13:07;;;;;;;2.47;1.27;;;;;;;-140.72;100.00;52539.00;5091149;28;20028;-73
2022/04/20 05:15:33;;;;;;;1.08;0.68;;;;;;;-140.72;100.00;52510.59;5091003;28;20020;-73
2022/04/20 05:18:00;;;;;;;1.23;0.65;;;;;;;-140.72;100.00;52500.44;5090785;28;20024;-70
2022/04/20 05:20:25;;;;;;;2.50;0.80;;;;;;;-140.72;100.00;52502.47;5076973;28;20525;-71
2022/04/20 05:22:50;;;;;;;0.75;0.68;;;;;;;-140.72;100.00;52500.44;5070830;28;20033;-70
2022/04/20 05:25:16;;;;;;;2.05;0.60;;;;;;;-140.72;100.00;52520.72;5070303;28;20048;-70
2022/04/20 05:27:42;;;;;;;0.98;0.50;;;;;;;-140.72;100.00;52502.47;5070769;28;20033;-70
2022/04/20 05:30:11;;;;;;;0.65;0.50;;;;;;;-140.72;100.00;52451.72;5070454;28;20031;-73
2022/04/20 05:32:36;;;;;;;2.08;1.85;;;;;;;-140.72;100.00;52500.44;5070202;28;20032;-71
2022/04/20 05:35:03;;;;;;;0.98;0.65;;;;;;;-140.72;100.00;52524.78;5070388;28;20127;-70
2022/04/20 05:42:56;;;;;;;0.98;0.45;;;;;;;-140.72;100.00;52496.38;5071902;28;20076;-70
2022/04/20 05:45:22;;;;;;;1.58;1.33;;;;;;;-140.72;100.00;52492.31;5078868;28;20028;-70
2022/04/20 05:47:48;;;;;;;2.58;1.33;;;;;;;-140.72;100.00;52520.72;5090797;28;20408;-70
2022/04/20 05:50:13;;;;;;;1.05;0.95;;;;;;;-140.72;100.00;52502.47;5072668;28;20024;-75
2022/04/20 05:52:39;;;;;;;1.90;1.33;;;;;;;-140.72;100.00;52488.25;5090897;28;20028;-72
2022/04/20 05:55:05;;;;;;;0.60;0.60;;;;;;;-140.72;100.00;52510.59;5087244;28;20206;-72
2022/04/20 05:57:32;;;;;;;0.50;0.50;;;;;;;-140.72;100.00;52476.09;5079640;28;20115;-71
2022/04/20 05:59:57;;;;;;;1.48;1.10;;;;;;;-140.72;100.00;52478.13;5014811;28;20043;-70
2022/04/20 06:02:25;;;;;;;3.25;1.58;;;;;;;-140.72;100.00;52492.31;5085086;28;20039;-73
2022/04/20 06:04:51;;;;;;;0.55;0.43;;;;;;;-140.72;100.00;52498.41;5087040;28;20126;-72
2022/04/20 06:07:17;;;;;;;1.48;0.55;;;;;;;-140.72;100.00;52472.03;5077638;28;20028;-72
2022/04/20 06:09:42;;;;;;;0.77;0.75;;;;;;;-140.72;100.00;52451.72;5074116;28;20046;-72
2022/04/20 06:12:08;;;;;;;0.70;0.52;;;;;;;-140.72;100.00;52514.63;5070356;28;20049;-72
2022/04/20 06:14:33;;;;;;;0.47;0.47;;;;;;;-140.72;100.00;52455.78;5076467;28;20127;-73
2022/04/20 06:16:59;;;;;;;1.60;0.60;;;;;;;-140.72;100.00;52463.91;5088552;28;20081;-71
2022/04/20 06:19:24;;;;;;;2.28;1.30;;;;;;;-140.72;100.00;52459.84;5084729;28;20040;-72
2022/04/20 06:21:49;;;;;;;1.85;0.93;;;;;;;-140.72;100.00;52492.31;5087199;28;20491;-72
2022/04/20 06:24:15;;;;;;;0.22;0.22;;;;;;;-140.72;100.00;52459.84;5072783;28;20032;-72
2022/04/20 06:26:40;;;;;;;2.15;0.75;;;;;;;-140.72;100.00;52484.19;5073353;28;20122;-73
2022/04/20 06:29:06;;;;;;;0.98;0.50;;;;;;;-140.72;100.00;52465.94;5073964;28;20154;-71
2022/04/20 06:31:31;;;;;;;1.98;1.25;;;;;;;-140.72;100.00;52476.09;5073796;28;20024;-74
2022/04/20 06:33:59;;;;;;;1.55;1.10;;;;;;;-140.72;100.00;52447.69;5073784;28;20032;-72
2022/04/20 06:36:25;;;;;;;1.25;0.95;;;;;;;-140.72;100.00;52445.66;5060239;28;20036;-72
2022/04/20 06:38:51;;;;;;;2.25;0.63;;;;;;;-140.72;100.00;52451.72;5089076;28;20339;-72
2022/04/20 06:41:16;;;;;;;1.05;0.90;;;;;;;-140.72;100.00;52455.78;5093550;28;20019;-72
2022/04/20 06:43:41;;;;;;;1.42;1.30;;;;;;;-140.72;100.00;52443.63;5093388;28;20610;-73
2022/04/20 06:46:08;;;;;;;0.75;0.50;;;;;;;-140.72;100.00;52447.69;5086406;28;20480;-71
2022/04/20 06:48:33;;;;;;;0.68;0.68;;;;;;;-140.72;100.00;52407.09;5081352;28;20028;-72
2022/04/20 06:51:00;;;;;;;1.30;0.68;;;;;;;-140.72;100.00;52476.09;5092428;28;20023;-72
2022/04/20 06:58:53;;;;;;;0.68;0.50;;;;;;;-140.72;100.00;52435.50;5092645;28;20039;-72
2022/04/20 07:01:19;;;;;;;3.30;0.75;;;;;;;-140.72;100.00;52423.31;5004769;28;20054;-71
2022/04/20 07:03:44;;;;;;;0.63;0.55;;;;;;;-140.72;100.00;52437.53;4990738;28;20030;-72
2022/04/20 07:06:10;;;;;;;0.95;0.85;;;;;;;-140.72;100.00;52447.69;5003200;28;20133;-71
2022/04/20 07:08:36;;;;;;;1.13;1.00;;;;;;;-140.72;100.00;52409.13;5032576;28;20046;-71
2022/04/20 07:11:03;;;;;;;1.30;0.68;;;;;;;-140.72;100.00;52474.06;5007911;28;20099;-71
2022/04/20 07:13:29;;;;;;;0.77;0.57;;;;;;;-140.72;100.00;52467.97;5059330;28;20023;-73
2022/04/20 07:15:54;;;;;;;1.88;1.02;;;;;;;-140.72;100.00;52429.41;5064892;28;20311;-71
2022/04/20 07:18:20;;;;;;;0.70;0.50;;;;;;;-140.72;100.00;52463.91;5039027;28;20018;-71
2022/04/20 07:20:45;;;;;;;1.15;0.60;;;;;;;-140.72;100.00;52455.78;5065936;28;20385;-73
2022/04/20 07:23:11;;;;;;;0.60;0.40;;;;;;;-140.72;100.00;52443.63;5042872;28;20363;-72
2022/04/20 07:25:38;;;;;;;1.33;0.88;;;;;;;-140.72;100.00;52453.75;5009938;28;20033;-74
2022/04/20 07:28:04;;;;;;;2.17;1.00;;;;;;;-140.72;100.00;52411.16;5004682;28;20079;-73
2022/04/20 07:30:30;;;;;;;1.65;0.70;;;;;;;-140.72;100.00;52417.25;5022004;28;20090;-71
2022/04/20 07:32:56;;;;;;;0.38;0.25;;;;;;;-140.72;100.00;52467.97;4989124;28;20121;-71
2022/04/20 07:35:21;;;;;;;0.70;0.57;;;;;;;-140.72;100.00;52453.75;5005557;28;20105;-72
2022/04/20 07:37:47;;;;;;;0.88;0.77;;;;;;;-140.72;100.00;52394.91;5009230;28;20041;-71
2022/04/20 07:40:13;;;;;;;1.80;0.40;;;;;;;-140.72;100.00;52419.28;5009381;28;20026;-70
2022/04/20 07:42:38;;;;;;;0.55;0.43;;;;;;;-140.72;100.00;52425.34;5009147;28;20037;-70
2022/04/20 07:45:04;;;;;;;0.90;0.60;;;;;;;-140.72;100.00;52403.03;5009594;28;20104;-71
2022/04/20 07:47:30;;;;;;;1.38;0.85;;;;;;;-140.72;100.00;52427.38;5009697;28;20471;-70
2022/04/20 07:52:51;;;;;;;1.75;1.00;;;;;;;-140.72;100.00;52401.00;5009695;28;20063;-72
2022/04/20 07:55:19;;;;;;;3.05;0.98;;;;;;;-140.72;100.00;52392.88;5009588;28;20115;-73
2022/04/20 07:57:45;;;;;;;1.00;0.77;;;;;;;-140.72;100.00;52396.94;4992370;28;20117;-71
2022/04/20 08:00:13;;;;;;;1.02;0.70;;;;;;;-140.72;100.00;52419.28;4990475;28;20054;-70
2022/04/20 08:02:39;;;;;;;1.48;0.55;;;;;;;-140.72;100.00;52348.25;4990068;28;20529;-73
2022/04/20 08:05:08;;;;;;;1.02;0.55;;;;;;;-140.72;100.00;52390.84;4989756;28;20031;-71
2022/04/20 08:07:36;;;;;;;0.90;0.40;;;;;;;-140.72;100.00;52398.97;4989403;28;20042;-72
2022/04/20 08:10:08;;;;;;;1.17;0.80;;;;;;;-140.72;100.00;52366.50;4989658;28;20029;-70
2022/04/20 08:12:40;;;;;;;2.00;0.60;;;;;;;-140.72;100.00;52358.41;4989510;28;20037;-72
2022/04/20 08:15:07;;;;;;;1.63;1.00;;;;;;;-140.72;100.00;52356.38;5000640;28;20044;-72
2022/04/20 08:17:33;;;;;;;0.70;0.47;;;;;;;-140.72;100.00;52336.06;5008816;28;20388;-71
2022/04/20 08:19:58;;;;;;;2.17;1.80;;;;;;;-140.72;100.00;52346.22;5003779;28;20029;-70
2022/04/20 08:22:26;;;;;;;1.83;1.00;;;;;;;-140.72;100.00;52327.97;5005293;28;20124;-70
2022/04/20 08:24:53;;;;;;;1.38;1.00;;;;;;;-140.72;100.00;52325.94;5009767;28;20026;-71
2022/04/20 08:27:20;;;;;;;1.42;1.05;;;;;;;-140.72;100.00;52330.00;5007208;28;20044;-71
2022/04/20 08:29:47;;;;;;;1.65;1.02;;;;;;;-140.72;100.00;52297.53;4998885;28;20049;-74
2022/04/20 08:32:15;;;;;;;1.23;0.60;;;;;;;-140.72;100.00;52299.56;4999518;28;20129;-69
2022/04/20 08:34:42;;;;;;;2.42;0.98;;;;;;;-140.72;100.00;52301.59;4995599;28;20037;-71
2022/04/20 08:37:08;;;;;;;1.23;0.60;;;;;;;-140.72;100.00;52297.53;5008413;28;20026;-72
2022/04/20 08:39:33;;;;;;;1.42;0.90;;;;;;;-140.72;100.00;52289.41;5009640;28;20052;-71
2022/04/20 08:42:00;;;;;;;1.30;0.68;;;;;;;-140.72;100.00;52244.78;5009566;28;20379;-72
2022/04/20 08:44:27;;;;;;;1.00;0.70;;;;;;;-140.72;100.00;52269.13;5009467;28;20037;-72
2022/04/20 08:46:54;;;;;;;1.77;0.80;;;;;;;-140.72;100.00;52285.34;5009099;28;20087;-70
2022/04/20 08:49:21;;;;;;;1.00;0.60;;;;;;;-140.72;100.00;52244.78;4997763;28;20151;-71
2022/04/20 08:54:33;;;;;;;2.65;0.80;;;;;;;-140.72;100.00;52263.03;5008724;28;20060;-71
2022/04/20 08:57:19;;;;;;;1.17;0.63;;;;;;;-140.72;100.00;52222.44;5000227;28;20026;-71
2022/04/20 08:59:48;;;;;;;1.10;0.75;;;;;;;-140.72;100.00;52263.03;4991177;28;20133;-70
2022/04/20 09:02:18;;;;;;;0.90;0.55;;;;;;;-140.72;100.00;52218.38;5080389;28;20063;-70
2022/04/20 09:04:43;;;;;;;0.90;0.55;;;;;;;-140.72;100.00;52167.66;5090167;28;20106;-70
2022/04/20 09:07:11;;;;;;;1.20;0.63;;;;;;;-140.72;100.00;52133.16;5090468;28;20103;-72
2022/04/20 09:09:38;;;;;;;1.25;0.63;;;;;;;-140.72;100.00;52131.16;5090248;28;20024;-73
2022/04/20 09:12:23;;;;;;;1.38;0.65;;;;;;;-140.72;100.00;52127.09;5088735;28;20024;-70
2022/04/20 09:14:50;;;;;;;0.82;0.43;;;;;;;-140.72;100.00;52078.38;5086468;28;20546;-72
2022/04/20 09:17:19;;;;;;;0.80;0.28;;;;;;;-140.72;100.00;52153.47;5087429;28;20036;-70
2022/04/20 09:19:46;;;;;;;0.80;0.40;;;;;;;-140.72;100.00;52090.56;5090491;28;20035;-71
2022/04/20 09:22:21;;;;;;;1.00;0.75;;;;;;;-140.72;100.00;52098.69;5090932;28;20031;-71
2022/04/20 09:24:57;;;;;;;0.40;0.30;;;;;;;-140.72;100.00;52066.22;5091194;28;20028;-70
2022/04/20 09:27:23;;;;;;;1.02;0.50;;;;;;;-140.72;100.00;52070.28;5089137;28;20040;-71
2022/04/20 09:29:54;;;;;;;1.23;0.57;;;;;;;-140.72;100.00;52025.63;5072615;28;20084;-72
2022/04/20 09:32:39;;;;;;;1.42;0.65;;;;;;;-140.72;100.00;52058.09;5068387;28;20032;-71
2022/04/20 09:35:13;;;;;;;0.25;0.25;;;;;;;-140.72;100.00;52041.88;5088401;28;20025;-71
2022/04/20 09:37:39;;;;;;;0.82;0.30;;;;;;;-140.72;100.00;52082.44;5091056;28;20021;-71
2022/04/20 09:40:06;;;;;;;0.90;0.40;;;;;;;-140.72;100.00;52049.97;5088072;28;20549;-70
2022/04/20 09:42:34;;;;;;;0.43;0.20;;;;;;;-140.72;100.00;52017.53;5090063;28;20432;-71
2022/04/20 09:45:02;;;;;;;0.77;0.20;;;;;;;-140.72;100.00;51993.19;5089700;28;20059;-71
2022/04/20 09:50:25;;;;;;;0.98;0.55;;;;;;;-140.72;100.00;51989.13;5074987;28;20055;-73
2022/04/20 09:52:58;;;;;;;0.73;0.30;;;;;;;-140.72;100.00;51946.50;5089329;28;20074;-71
2022/04/20 09:55:27;;;;;;;2.28;0.75;;;;;;;-140.72;100.00;51948.53;5089569;28;20036;-73
2022/04/20 09:58:07;;;;;;;0.77;0.30;;;;;;;-140.72;100.00;51997.22;5074326;28;20028;-71
2022/04/20 10:00:37;;;;;;;1.40;0.70;;;;;;;-140.72;97.98;51936.38;5045777;28;20072;-71
2022/04/20 10:03:03;;;;;;;0.95;0.43;;;;;;;-140.72;95.13;51948.53;5093030;28;20125;-71
2022/04/20 10:05:28;;;;;;;1.27;0.60;;;;;;;-140.72;95.26;51891.72;5093276;28;20077;-71
2022/04/20 10:07:59;;;;;;;1.05;0.50;;;;;;;-140.72;88.81;51920.13;5093032;28;20078;-71
2022/04/20 10:10:27;;;;;;;0.60;0.38;;;;;;;-140.72;83.52;51885.66;5094450;28;20040;-71
2022/04/20 10:12:54;;;;;;;1.52;0.60;;;;;;;-140.72;83.55;51881.59;5094067;28;20031;-71
2022/04/20 10:18:14;;;;;;;0.75;0.55;;;;;;;-140.72;81.91;51891.72;5094139;28;20039;-70
2022/04/20 10:20:42;;;;;;;1.80;0.85;;;;;;;-140.72;82.70;51879.56;5093923;28;20035;-71
2022/04/20 10:23:10;;;;;;;1.03;0.47;;;;;;;-140.72;74.16;51820.72;5093941;28;20489;-71
2022/04/20 10:25:39;;;;;;;0.93;0.32;;;;;;;-140.72;80.37;51889.69;5093884;28;20039;-72
2022/04/20 10:28:17;;;;;;;1.35;0.43;;;;;;;-140.72;79.86;51875.50;5093871;28;20059;-73
2022/04/20 10:31:18;;;;;;;0.80;0.22;;;;;;;-140.72;69.47;51836.94;5093937;28;20090;-71
2022/04/20 10:33:44;;;;;;;0.95;0.65;;;;;;;-140.72;73.13;51869.41;5082466;28;20043;-73
2022/04/20 10:36:13;;;;;;;1.33;0.70;;;;;;;-140.72;73.01;51871.44;5093531;28;20440;-72
2022/04/20 10:38:39;;;;;;;0.95;0.38;;;;;;;-140.72;68.87;51847.09;5093546;28;20108;-71
2022/04/20 10:41:09;;;;;;;0.60;0.25;;;;;;;-140.72;65.44;51725.38;5093486;28;20044;-73
2022/04/20 10:43:39;;;;;;;1.00;0.30;;;;;;;-140.72;67.79;51822.75;5093480;28;20036;-70
2022/04/20 10:46:15;;;;;;;0.88;0.52;;;;;;;-140.72;63.58;51847.09;5075409;28;20031;-71
2022/04/20 10:48:47;;;;;;;0.32;0.20;;;;;;;-140.72;63.53;51804.50;5093096;28;20066;-69
2022/04/20 10:51:14;;;;;;;1.00;0.40;;;;;;;-140.72;58.42;51776.09;5093134;28;20032;-71
2022/04/20 10:53:43;;;;;;;0.68;0.30;;;;;;;-140.72;56.04;51782.16;5093084;28;20035;-70
2022/04/20 10:56:08;;;;;;;0.30;0.15;;;;;;;-140.72;56.60;51765.94;5093086;28;20020;-70
2022/04/20 10:58:38;;;;;;;0.63;0.30;;;;;;;-140.72;56.13;51755.81;5093039;28;20035;-72
2022/04/20 11:01:12;;;;;;;0.40;0.17;;;;;;;-140.72;52.36;51735.50;5093183;28;20059;-70
2022/04/20 11:04:04;;;;;;;0.70;0.40;;;;;;;-140.72;52.87;51729.44;5093060;28;20032;-71
2022/04/20 11:07:08;;;;;;;0.90;0.40;;;;;;;-140.72;56.26;51741.59;5093006;28;20120;-70
2022/04/20 11:09:44;;;;;;;1.98;0.52;;;;;;;-140.72;56.97;51733.47;5092617;28;20039;-71
2022/04/20 11:21:09;;;;;;;1.08;0.30;;;;;;;-140.72;53.08;51660.44;5093032;28;20440;-69
2022/04/20 11:23:53;;;;;;;1.00;0.40;;;;;;;-140.72;47.99;51684.78;5092607;28;20043;-70
2022/04/20 11:26:28;;;;;;;0.95;0.30;;;;;;;-140.72;51.77;51709.13;5093045;28;20032;-71
2022/04/20 11:28:58;;;;;;;1.10;0.38;;;;;;;-140.72;49.28;51688.84;5092730;28;20043;-70
2022/04/20 11:31:24;;;;;;;0.88;0.38;;;;;;;-140.72;49.61;51674.66;5092585;28;20035;-69
2022/04/20 11:33:51;;;;;;;1.08;0.50;;;;;;;-140.72;51.64;51688.84;5092487;28;20390;-70
2022/04/20 11:36:17;;;;;;;1.67;0.57;;;;;;;-140.72;47.81;51628.00;5092489;28;20028;-71
2022/04/20 11:38:44;;;;;;;0.45;0.38;;;;;;;-140.72;49.01;51636.09;5092290;28;20043;-70
2022/04/20 11:41:11;;;;;;;0.80;0.43;;;;;;;-140.72;52.90;51619.88;5092080;28;20470;-70
2022/04/20 11:43:38;;;;;;;0.45;0.28;;;;;;;-140.72;42.42;51591.47;5092340;28;20484;-69